createdAt,value
2023-04-11T00:02:05.215Z,78.00
2023-04-11T00:04:34.573Z,78.30
2023-04-11T00:07:02.986Z,78.38
2023-04-11T00:09:31.804Z,78.81
2023-04-11T00:12:01.966Z,78.88
2023-04-11T00:14:32.573Z,79.06
2023-04-11T00:17:01.794Z,79.33
2023-04-11T00:19:30.880Z,79.18
2023-04-11T00:22:00.736Z,79.19
2023-04-11T00:24:29.218Z,78.93
2023-04-11T00:26:58.542Z,79.28
2023-04-11T00:29:27.295Z,79.00
2023-04-11T00:31:56.912Z,78.69
2023-04-11T00:34:25.848Z,78.47
2023-04-11T00:36:54.483Z,78.31
2023-04-11T00:39:23.025Z,78.14
2023-04-11T00:41:51.310Z,78.49
2023-04-11T00:44:19.829Z,78.57
2023-04-11T00:46:48.355Z,78.80
2023-04-11T00:49:16.820Z,78.94
2023-04-11T00:51:45.371Z,78.92
2023-04-11T00:54:14.556Z,79.07
2023-04-11T00:56:43.602Z,78.91
2023-04-11T00:59:12.577Z,78.91
2023-04-11T01:01:41.941Z,78.53
2023-04-11T01:04:10.707Z,78.78
2023-04-11T01:06:40.177Z,78.70
2023-04-11T01:09:08.613Z,78.32
2023-04-11T01:11:37.282Z,78.08
2023-04-11T01:14:06.858Z,77.77
2023-04-11T01:16:35.382Z,77.40
2023-04-11T01:19:04.577Z,77.18
2023-04-11T01:21:33.406Z,77.30
2023-04-11T01:24:04.031Z,77.33
2023-04-11T01:26:32.533Z,77.24
2023-04-11T01:29:02.217Z,77.20
2023-04-11T01:31:32.728Z,77.18
2023-04-11T01:34:02.153Z,77.21
2023-04-11T01:36:31.827Z,77.17
2023-04-11T01:39:00.529Z,76.75
2023-04-11T01:41:30.941Z,76.91
2023-04-11T01:44:00.961Z,76.87
2023-04-11T01:46:29.929Z,76.28
2023-04-11T01:49:00.646Z,76.45
2023-04-11T01:51:29.263Z,76.54
2023-04-11T01:53:58.041Z,76.43
2023-04-11T01:56:26.534Z,76.35
2023-04-11T01:58:55.171Z,76.36
2023-04-11T02:01:23.954Z,76.37
2023-04-11T02:03:52.556Z,76.27
2023-04-11T02:06:20.938Z,76.27
2023-04-11T02:08:49.468Z,76.16
2023-04-11T02:11:17.874Z,76.10
2023-04-11T02:13:46.737Z,76.02
2023-04-11T02:16:18.191Z,76.27
2023-04-11T02:18:47.199Z,76.54
2023-04-11T02:21:15.601Z,76.62
2023-04-11T02:23:44.184Z,77.08
2023-04-11T02:26:14.123Z,76.98
2023-04-11T02:28:42.587Z,77.29
2023-04-11T02:31:11.338Z,77.26
2023-04-11T02:33:39.748Z,77.72
2023-04-11T02:36:08.272Z,77.77
2023-04-11T02:38:37.711Z,78.05
2023-04-11T02:41:07.027Z,77.75
2023-04-11T02:43:35.727Z,78.13
2023-04-11T02:46:12.835Z,78.58
2023-04-11T02:48:43.712Z,78.80
2023-04-11T02:51:13.222Z,78.77
2023-04-11T02:53:41.651Z,79.01
2023-04-11T02:56:10.984Z,78.61
2023-04-11T02:58:42.198Z,78.63
2023-04-11T03:01:12.173Z,78.59
2023-04-11T03:03:41.762Z,78.99
2023-04-11T03:06:10.707Z,78.93
2023-04-11T03:08:39.846Z,79.21
2023-04-11T03:11:08.620Z,79.17
2023-04-11T03:13:40.111Z,79.11
2023-04-11T03:16:08.915Z,78.97
2023-04-11T03:18:37.429Z,79.05
2023-04-11T03:21:11.653Z,78.87
2023-04-11T03:23:45.936Z,78.41
2023-04-11T03:26:15.308Z,78.62
2023-04-11T03:28:44.842Z,78.32
2023-04-11T03:31:14.517Z,78.46
2023-04-11T03:33:43.059Z,78.42
2023-04-11T03:36:12.193Z,78.44
2023-04-11T03:38:40.899Z,78.45
2023-04-11T03:41:09.471Z,78.57
2023-04-11T03:43:38.671Z,78.34
2023-04-11T03:46:07.796Z,78.64
2023-04-11T03:48:42.830Z,78.91
2023-04-11T03:51:11.280Z,78.77
2023-04-11T03:53:57.070Z,79.32
2023-04-11T03:56:29.731Z,78.78
2023-04-11T03:58:58.494Z,79.15
2023-04-11T04:01:30.133Z,78.91
2023-04-11T04:04:02.445Z,78.75
2023-04-11T04:06:31.449Z,78.28
2023-04-11T04:08:59.970Z,78.20
2023-04-11T04:11:30.119Z,77.48
2023-04-11T04:13:58.812Z,76.96
2023-04-11T04:16:27.340Z,76.22
2023-04-11T04:18:58.030Z,75.56
2023-04-11T04:21:26.921Z,75.17
2023-04-11T04:24:03.769Z,75.17
2023-04-11T04:26:58.062Z,74.89
2023-04-11T04:29:53.940Z,74.87
2023-04-11T04:32:36.309Z,74.67
2023-04-11T04:35:10.560Z,74.85
2023-04-11T04:37:45.694Z,74.63
2023-04-11T04:40:40.041Z,74.47
2023-04-11T04:43:11.778Z,73.84
2023-04-11T04:45:49.495Z,73.74
2023-04-11T04:48:25.766Z,73.69
2023-04-11T04:50:54.252Z,73.63
2023-04-11T04:53:22.832Z,73.53
2023-04-11T04:55:55.384Z,73.30
2023-04-11T04:58:24.005Z,72.67
2023-04-11T05:00:56.250Z,72.80
2023-04-11T05:03:29.327Z,72.58
2023-04-11T05:05:59.740Z,72.36
2023-04-11T05:08:28.523Z,71.46
2023-04-11T05:10:59.533Z,71.11
2023-04-11T05:13:28.063Z,70.88
2023-04-11T05:15:56.782Z,70.78
2023-04-11T05:18:29.690Z,70.46
2023-04-11T05:20:58.490Z,70.11
2023-04-11T05:23:31.937Z,69.95
2023-04-11T05:26:02.225Z,69.42
2023-04-11T05:28:31.893Z,69.28
2023-04-11T05:31:00.981Z,68.58
2023-04-11T05:33:30.939Z,67.90
2023-04-11T05:36:00.266Z,67.83
2023-04-11T05:38:29.049Z,67.77
2023-04-11T05:40:57.596Z,67.70
2023-04-11T05:43:27.654Z,67.52
2023-04-11T05:45:57.261Z,67.26
2023-04-11T05:48:25.849Z,66.99
2023-04-11T05:50:55.068Z,67.16
2023-04-11T05:53:23.686Z,66.74
2023-04-11T05:55:52.496Z,66.73
2023-04-11T05:58:21.100Z,66.36
2023-04-11T06:00:49.934Z,66.49
2023-04-11T06:03:18.421Z,66.75
2023-04-11T06:05:47.112Z,66.88
2023-04-11T06:08:15.784Z,66.84
2023-04-11T06:10:44.172Z,67.05
2023-04-11T06:13:12.612Z,66.70
2023-04-11T06:15:41.456Z,66.66
2023-04-11T06:18:09.928Z,66.69
2023-04-11T06:20:38.289Z,66.43
2023-04-11T06:23:07.386Z,66.72
2023-04-11T06:25:35.719Z,66.74
2023-04-11T06:28:04.068Z,66.45
2023-04-11T06:30:32.791Z,66.31
2023-04-11T06:33:01.317Z,66.17
2023-04-11T06:35:29.636Z,66.11
2023-04-11T06:37:58.176Z,65.54
2023-04-11T06:40:26.589Z,65.40
2023-04-11T06:42:56.017Z,65.47
2023-04-11T06:45:24.397Z,65.27
2023-04-11T06:47:53.033Z,64.85
2023-04-11T06:50:21.612Z,64.72
2023-04-11T06:52:50.409Z,64.41
2023-04-11T06:55:18.861Z,63.85
2023-04-11T06:57:47.275Z,63.73
2023-04-11T07:00:16.602Z,63.63
2023-04-11T07:02:45.425Z,63.45
2023-04-11T07:05:14.033Z,63.12
2023-04-11T07:07:42.744Z,62.95
2023-04-11T07:10:11.312Z,62.46
2023-04-11T07:12:39.601Z,62.56
2023-04-11T07:15:09.294Z,61.78
2023-04-11T07:17:38.067Z,61.29
2023-04-11T07:20:09.430Z,61.21
2023-04-11T07:22:37.925Z,59.90
2023-04-11T07:25:06.685Z,60.03
2023-04-11T07:27:36.410Z,58.43
2023-04-11T07:30:05.452Z,58.47
2023-04-11T07:32:33.929Z,58.38
2023-04-11T07:35:02.240Z,58.35
2023-04-11T07:37:31.341Z,58.10
2023-04-11T07:39:59.877Z,57.03
2023-04-11T07:42:28.380Z,57.45
2023-04-11T07:45:59.902Z,57.07
2023-04-11T07:49:08.105Z,55.11
2023-04-11T07:52:16.553Z,54.59
2023-04-11T07:54:44.901Z,54.55
2023-04-11T07:57:53.191Z,53.28
2023-04-11T08:01:24.665Z,51.83
2023-04-11T08:04:36.334Z,51.67
2023-04-11T08:07:44.762Z,50.84
2023-04-11T08:10:53.018Z,51.51
2023-04-11T08:14:24.946Z,51.22
2023-04-11T08:17:37.964Z,50.98
2023-04-11T08:20:46.585Z,50.90
2023-04-11T08:23:55.090Z,50.68
2023-04-11T08:27:26.728Z,52.10
2023-04-11T08:29:55.020Z,55.44
2023-04-11T08:33:03.366Z,56.07
2023-04-11T08:36:11.900Z,57.04
2023-04-11T08:39:20.365Z,56.21
2023-04-11T08:42:51.884Z,57.64
2023-04-11T08:46:00.147Z,57.35
2023-04-11T08:49:08.486Z,57.55
2023-04-11T08:52:16.886Z,56.06
2023-04-11T08:55:25.325Z,56.40
2023-04-11T08:58:33.717Z,54.40
2023-04-11T09:01:53.262Z,53.84
2023-04-11T09:04:47.574Z,53.18
2023-04-11T09:08:18.970Z,52.23
2023-04-11T09:11:27.170Z,50.83
2023-04-11T09:14:47.214Z,51.39
2023-04-11T09:56:37.747Z,70.35
2023-04-11T09:59:06.715Z,69.85
2023-04-11T10:01:37.466Z,71.01
2023-04-11T10:04:06.165Z,72.08
2023-04-11T10:06:49.056Z,71.35
2023-04-11T10:09:17.822Z,71.80
2023-04-11T10:11:46.729Z,72.91
2023-04-11T10:14:38.010Z,73.14
2023-04-11T10:17:24.215Z,72.94
2023-04-11T10:19:57.197Z,73.26
2023-04-11T10:22:51.762Z,73.28
2023-04-11T10:25:27.166Z,74.19
2023-04-11T10:28:01.395Z,74.08
2023-04-11T10:30:42.348Z,73.02
2023-04-11T10:33:11.899Z,72.56
2023-04-11T10:36:03.577Z,72.71
2023-04-11T10:38:32.040Z,72.97
2023-04-11T10:41:33.705Z,73.64
2023-04-11T10:44:20.939Z,73.95
2023-04-11T10:46:54.528Z,73.61
2023-04-11T10:49:34.153Z,74.02
2023-04-11T10:52:22.595Z,73.32
2023-04-11T10:54:52.654Z,73.21
2023-04-11T10:57:21.761Z,73.12
2023-04-11T10:59:50.150Z,73.25
2023-04-11T11:02:22.295Z,74.30
2023-04-11T11:04:51.373Z,74.46
2023-04-11T11:07:19.730Z,75.88
2023-04-11T11:09:49.812Z,75.32
2023-04-11T11:12:18.605Z,74.66
2023-04-11T11:14:47.585Z,74.02
2023-04-11T11:17:17.198Z,73.61
2023-04-11T11:19:47.402Z,72.76
2023-04-11T11:22:17.381Z,72.78
2023-04-11T11:24:45.801Z,72.94
2023-04-11T11:27:21.898Z,73.18
2023-04-11T11:29:51.110Z,73.44
2023-04-11T11:32:29.014Z,73.32
2023-04-11T11:34:58.881Z,73.66
2023-04-11T11:37:27.244Z,73.68
2023-04-11T11:39:56.064Z,73.77
2023-04-11T11:42:24.586Z,74.83
2023-04-11T11:44:53.097Z,74.60
2023-04-11T11:47:22.883Z,75.16
2023-04-11T11:49:55.672Z,75.45
2023-04-11T11:52:41.246Z,75.96
2023-04-11T11:55:30.905Z,75.88
2023-04-11T11:58:02.466Z,76.41
2023-04-11T12:00:35.449Z,76.41
2023-04-11T12:03:05.302Z,76.79
2023-04-11T12:05:35.149Z,77.12
2023-04-11T12:08:07.716Z,77.76
2023-04-11T12:10:39.207Z,78.39
2023-04-11T12:13:16.484Z,78.97
2023-04-11T12:15:49.012Z,79.81
2023-04-11T12:18:21.052Z,79.56
2023-04-11T12:20:50.147Z,80.06
2023-04-11T12:23:19.067Z,79.45
2023-04-11T12:25:48.051Z,80.15
2023-04-11T12:29:16.167Z,79.28
2023-04-11T12:32:44.258Z,79.65
2023-04-11T12:36:12.308Z,79.54
2023-04-11T12:38:41.393Z,80.30
2023-04-11T12:43:42.743Z,80.71
2023-04-11T12:50:44.824Z,81.46
2023-04-11T12:53:13.136Z,81.74
2023-04-11T12:55:41.596Z,82.24
2023-04-11T12:58:10.017Z,82.38
2023-04-11T13:00:38.524Z,82.38
2023-04-11T13:03:07.352Z,82.36
2023-04-11T13:05:37.245Z,81.89
2023-04-11T13:08:05.632Z,82.18
2023-04-11T13:10:33.973Z,82.65
2023-04-11T13:13:11.881Z,82.87
2023-04-11T13:15:46.711Z,83.12
2023-04-11T13:18:15.437Z,83.54
2023-04-11T13:20:43.918Z,83.71
2023-04-11T13:23:13.693Z,83.23
2023-04-11T13:25:43.704Z,83.18
2023-04-11T13:28:12.556Z,83.05
2023-04-11T13:30:41.282Z,83.71
2023-04-11T13:33:09.981Z,83.38
2023-04-11T13:35:38.484Z,83.36
2023-04-11T13:38:06.914Z,83.48
2023-04-11T13:40:36.200Z,83.10
2023-04-11T13:43:04.745Z,84.44
2023-04-11T13:45:33.185Z,84.26
2023-04-11T13:48:02.882Z,83.97
2023-04-11T13:51:20.789Z,84.37
2023-04-11T13:53:49.314Z,84.93
2023-04-11T13:56:18.050Z,85.20
2023-04-11T13:58:46.548Z,84.88
2023-04-11T14:01:15.585Z,85.45
2023-04-11T14:03:45.035Z,84.88
2023-04-11T14:06:13.731Z,85.69
2023-04-11T14:08:42.246Z,85.54
2023-04-11T14:11:10.471Z,85.70
2023-04-11T14:13:39.050Z,85.99
2023-04-11T14:16:09.273Z,86.56
2023-04-11T14:18:37.916Z,86.41
2023-04-11T14:21:07.453Z,86.79
2023-04-11T14:23:36.941Z,86.91
2023-04-11T14:26:05.696Z,87.69
2023-04-11T14:28:34.289Z,87.12
2023-04-11T14:31:02.929Z,86.97
2023-04-11T14:33:31.713Z,87.08
2023-04-11T14:36:01.006Z,87.46
2023-04-11T14:38:29.746Z,87.32
2023-04-11T14:40:58.211Z,87.04
2023-04-11T14:43:26.906Z,87.42
2023-04-11T14:45:57.542Z,86.98
2023-04-11T14:48:27.558Z,86.79
2023-04-11T14:50:55.974Z,87.21
2023-04-11T14:54:04.524Z,87.55
2023-04-11T14:56:32.962Z,87.95
2023-04-11T14:59:01.776Z,88.17
2023-04-11T15:01:31.006Z,88.38
2023-04-11T15:03:59.756Z,88.23
2023-04-11T15:06:28.665Z,89.10
2023-04-11T15:08:57.144Z,89.09
2023-04-11T15:11:27.490Z,89.14
2023-04-11T15:13:56.298Z,89.68
2023-04-11T15:16:25.053Z,89.59
2023-04-11T15:18:53.471Z,89.85
2023-04-11T15:21:22.103Z,89.59
2023-04-11T15:23:51.021Z,89.74
2023-04-11T15:26:19.412Z,89.45
2023-04-11T15:28:48.233Z,89.82
2023-04-11T15:31:26.732Z,89.65
2023-04-11T15:34:03.575Z,89.87
2023-04-11T15:36:32.463Z,89.99
2023-04-11T15:39:01.176Z,89.94
2023-04-11T15:41:30.630Z,90.60
2023-04-11T15:44:00.621Z,90.53
2023-04-11T15:46:30.312Z,90.36
2023-04-11T15:48:58.710Z,90.82
2023-04-11T15:51:27.381Z,91.96
2023-04-11T15:53:56.324Z,90.90
2023-04-11T15:56:24.856Z,91.22
2023-04-11T15:58:53.182Z,90.61
2023-04-11T16:01:25.408Z,90.81
2023-04-11T16:03:54.365Z,90.96
2023-04-11T16:06:23.020Z,91.25
2023-04-11T16:08:51.446Z,91.43
2023-04-11T16:11:20.065Z,91.58
2023-04-11T16:13:48.756Z,91.35
2023-04-11T16:16:17.169Z,90.99
2023-04-11T16:18:45.692Z,91.26
2023-04-11T16:21:16.174Z,91.47
2023-04-11T16:23:44.688Z,91.36
2023-04-11T16:26:13.068Z,91.06
2023-04-11T16:28:41.621Z,90.80
2023-04-11T16:31:09.958Z,90.31
2023-04-11T16:33:38.289Z,90.33
2023-04-11T16:36:07.264Z,90.56
2023-04-11T16:38:35.868Z,91.03
2023-04-11T16:41:04.427Z,91.01
2023-04-11T16:43:32.845Z,91.50
2023-04-11T16:46:01.385Z,90.97
2023-04-11T16:48:30.784Z,89.10
2023-04-11T16:50:59.535Z,88.72
2023-04-11T16:53:27.942Z,88.21
2023-04-11T16:55:57.071Z,87.67
2023-04-11T16:58:25.406Z,87.47
2023-04-11T17:00:54.544Z,87.13
2023-04-11T17:03:23.168Z,86.59
2023-04-11T17:05:51.879Z,86.47
2023-04-11T17:08:20.523Z,86.74
2023-04-11T17:10:48.976Z,86.14
2023-04-11T17:13:57.644Z,86.00
2023-04-11T17:17:05.937Z,86.01
2023-04-11T17:19:34.524Z,85.83
2023-04-11T17:22:44.613Z,85.79
2023-04-11T17:26:18.461Z,85.65
2023-04-11T17:29:27.940Z,85.27
2023-04-11T17:32:38.250Z,85.14
2023-04-11T17:35:47.391Z,84.50
2023-04-11T17:39:19.543Z,85.02
2023-04-11T17:42:27.670Z,84.76
2023-04-11T17:45:36.151Z,84.46
2023-04-11T17:48:44.447Z,84.71
2023-04-11T17:52:16.578Z,84.54
2023-04-11T17:54:44.875Z,83.92
2023-04-11T17:57:54.057Z,84.13
2023-04-11T18:01:04.642Z,84.06
2023-04-11T18:04:14.879Z,85.79
2023-04-11T18:06:46.245Z,86.47
2023-04-11T18:09:17.806Z,86.18
2023-04-11T18:11:49.441Z,86.27
2023-04-11T18:14:18.086Z,86.50
2023-04-11T18:16:47.005Z,87.03
2023-04-11T18:19:15.782Z,86.05
2023-04-11T18:21:44.138Z,85.54
2023-04-11T18:24:12.900Z,84.74
2023-04-11T18:26:42.810Z,84.39
2023-04-11T18:29:11.290Z,84.44
2023-04-11T18:32:48.096Z,84.64
2023-04-11T18:35:58.209Z,84.17
2023-04-11T18:39:06.591Z,83.69
2023-04-11T18:46:26.375Z,83.21
2023-04-11T18:48:55.074Z,83.05
2023-04-11T18:52:23.526Z,83.33
2023-04-11T18:59:50.579Z,83.86
2023-04-11T19:02:31.591Z,84.32
2023-04-11T19:05:00.744Z,84.49
2023-04-11T19:07:31.753Z,84.75
2023-04-11T19:10:00.635Z,84.82
2023-04-11T19:12:29.016Z,84.93
2023-04-11T19:14:57.618Z,84.85
2023-04-11T19:17:26.473Z,85.42
2023-04-11T19:19:58.185Z,85.76
2023-04-11T19:22:29.906Z,85.84
2023-04-11T19:24:58.601Z,85.73
2023-04-11T19:27:27.360Z,85.90
2023-04-11T19:29:57.500Z,85.79
2023-04-11T19:32:26.239Z,86.02
2023-04-11T19:34:54.578Z,86.29
2023-04-11T19:37:24.085Z,86.26
2023-04-11T19:39:52.769Z,86.45
2023-04-11T19:42:21.361Z,86.52
2023-04-11T19:44:49.911Z,87.09
2023-04-11T19:47:19.652Z,87.38
2023-04-11T19:49:48.812Z,87.55
2023-04-11T19:52:17.942Z,87.28
2023-04-11T19:54:47.336Z,87.54
2023-04-11T19:57:15.876Z,87.64
2023-04-11T19:59:45.702Z,87.75
2023-04-11T20:02:14.322Z,87.49
2023-04-11T20:04:44.774Z,87.52
2023-04-11T20:07:13.801Z,87.50
2023-04-11T20:14:35.623Z,87.34
2023-04-11T20:18:03.690Z,87.47
2023-04-11T20:21:32.081Z,87.39
2023-04-11T20:25:00.223Z,87.45
2023-04-11T20:32:20.471Z,87.94
2023-04-11T20:35:06.469Z,87.90
2023-04-11T20:37:35.730Z,88.62
2023-04-11T20:41:04.333Z,89.17
2023-04-11T20:44:36.817Z,88.98
2023-04-11T20:47:05.419Z,88.89
2023-04-11T20:49:34.218Z,88.73
2023-04-11T20:52:02.828Z,88.30
2023-04-11T20:54:31.468Z,88.25
2023-04-11T20:56:59.941Z,88.25
2023-04-11T20:59:30.157Z,88.21
2023-04-11T21:01:58.437Z,88.02
2023-04-11T21:04:28.429Z,88.34
2023-04-11T21:06:57.176Z,88.53
2023-04-11T21:09:25.721Z,88.33
2023-04-11T21:11:54.201Z,88.24
2023-04-11T21:14:22.827Z,87.80
2023-04-11T21:16:51.090Z,87.80
2023-04-11T21:19:19.535Z,87.76
2023-04-11T21:21:47.984Z,87.62
2023-04-11T21:24:16.397Z,86.94
2023-04-11T21:26:47.183Z,87.29
2023-04-11T21:29:15.816Z,87.32
2023-04-11T21:31:44.426Z,87.12
2023-04-11T21:34:13.049Z,87.32
2023-04-11T21:36:41.473Z,87.12
2023-04-11T21:39:09.891Z,86.77
2023-04-11T21:41:38.546Z,86.67
2023-04-11T21:44:47.102Z,86.73
2023-04-11T21:47:55.412Z,86.89
2023-04-11T21:51:04.124Z,86.68
2023-04-11T21:54:37.737Z,86.72
2023-04-11T21:57:46.208Z,86.82
2023-04-11T22:00:50.827Z,86.78
2023-04-11T22:03:59.645Z,87.22
2023-04-11T22:07:33.602Z,88.25
2023-04-11T22:10:48.553Z,87.72
2023-04-11T22:13:58.518Z,86.73
2023-04-11T22:17:07.104Z,86.82
2023-04-11T22:20:16.683Z,86.83
2023-04-11T22:23:25.506Z,86.63
2023-04-11T22:26:36.764Z,86.88
2023-04-11T22:30:10.618Z,86.61
2023-04-11T22:33:19.028Z,86.80
2023-04-11T22:36:05.374Z,87.07
2023-04-11T22:39:33.504Z,87.28
2023-04-11T22:43:01.826Z,87.46
2023-04-11T22:46:29.906Z,87.70
2023-04-11T22:50:03.226Z,87.84
2023-04-11T22:53:31.419Z,87.96
2023-04-11T22:56:59.486Z,88.14
2023-04-11T23:02:20.931Z,89.55
2023-04-11T23:04:49.486Z,90.20
2023-04-11T23:08:17.643Z,90.02
2023-04-11T23:11:17.829Z,90.56
2023-04-11T23:13:47.184Z,90.43
2023-04-11T23:16:15.670Z,89.39
2023-04-11T23:18:44.097Z,89.37
2023-04-11T23:21:15.486Z,89.06
2023-04-11T23:23:44.115Z,88.91
2023-04-11T23:26:20.859Z,89.07
2023-04-11T23:28:49.641Z,89.16
2023-04-11T23:31:18.583Z,88.99
2023-04-11T23:37:38.508Z,88.98
2023-04-11T23:40:11.002Z,88.72
2023-04-11T23:42:40.844Z,88.80
2023-04-11T23:45:10.857Z,88.79
2023-04-11T23:47:39.331Z,89.19
2023-04-11T23:50:08.570Z,89.32
2023-04-11T23:53:36.864Z,89.42
2023-04-11T23:57:05.041Z,89.17
